Samobor HR Speed Test Log

Averages  Max Speed    
1 to 25 of 802** for City Samobor HR
Time
  
  Speed   Provider Size    User ConnectID   TestID  
1/27/20 10:33:06 am 21.87 Mbps 2.73 MB/sIskon 56.2 MB19551546697949 RujqQxTgN 
1/26/20 3:07:30 pm 20.87 Mbps 2.61 MB/sHrvatski 22.9 MB71634821934 5ChB4jYNz 
1/26/20 3:07:02 pm 20.61 Mbps 2.58 MB/sHrvatski 24.1 MB71634821934 eQBYj5VaM 
1/25/20 5:45:29 pm 8.94 Mbps 1.12 MB/sIskon 6.3 MB8176744044644 OqnMA7GLy 
1/25/20 5:45:19 pm 15.9 Mbps 1.99 MB/sIskon 22.9 MB8176744044644 gYN8v1Ai1 
1/25/20 5:44:04 pm 20.02 Mbps 2.5 MB/sIskon 50 MB8176744044644 l49xJrhfG 
1/14/20 6:52:51 am 159 kbps 20 kB/s4tel 256 kB16979069970731 N4VfnytLZ 
1/14/20 6:52:36 am 2.2 Mbps 275 kB/s4tel 2.5 MB16979069970731 wCScIOlZc 
1/3/20 4:08:19 pm 18.91 Mbps 2.36 MB/sIskon 24 MB8176744046936 wbqulqhcR 
12/27/19 10:43:13 am 2.36 Mbps 295 kB/s4tel 2 MB16979069970731 Y14GCQhoS 
12/27/19 10:42:54 am 13.67 Mbps 1.71 MB/s4tel 25.2 MB16979069970731 pvzanXQ5q 
12/8/19 8:14:36 pm 7.73 Mbps 967 kB/s4tel 6 MB16979070051705 fMm61zj90 
12/8/19 8:14:23 pm 12.7 Mbps 1.59 MB/s4tel 56.4 MB16979070051705 TTkvwJ0Wj 
12/1/19 1:52:23 pm 23.89 Mbps 2.99 MB/sTele2 20.9 MB76278904549 kZBCsS-Vz 
11/30/19 4:50:26 am 39.58 Mbps 4.95 MB/sTele2 72.9 MB76278904549 PjLa3FNNN 
11/29/19 7:15:53 pm 37.5 Mbps 4.69 MB/sTele2 25 MB76278904549 0grigQMZ6 
11/15/19 12:17:24 pm 10.31 Mbps 1.29 MB/sVipnet 15.2 MB872732431125 a5McT9ZRN 
11/13/19 9:44:59 pm 21.27 Mbps 2.66 MB/s4tel 23.5 MB1697907030487 8Muj1CRHU 
11/13/19 9:44:29 pm 43.76 Mbps 5.47 MB/s4tel 23.5 MB1697907030487 JMkY6c9BI 
11/11/19 10:09:36 am 7.25 Mbps 907 kB/sIskon 6.9 MB8176743963210 bJaF8Yt7t 
11/9/19 11:13:42 am 78.25 Mbps 9.78 MB/sA1 Hrvatska 70 MB1725226986492 yA_HBvfpk 
10/31/19 9:08:25 pm 7.06 Mbps 882 kB/sIskon 6.3 MB8176743959725 NhBLiVsKQ 
10/30/19 8:49:39 pm 848 kbps 106 kB/sTele2 672 kB1771889607441 NoOa6ETWQ 
10/30/19 8:49:27 pm 3.83 Mbps 479 kB/sTele2 2.3 MB1771889607441 UaAD~9iAT 
10/30/19 8:48:50 pm 340 kbps 43 kB/sTele2 256 kB1771889607441 MySqfu-0T 
  
** Partial Results: The most recent results have been displayed. Results over 50 Mbps are highlighted.
Calculated from graphed results above not entire query.
Displaying Internet Speed Test results for City Samobor HR

Minimum

Min 2.2 Mbps : 0.16 Mbps

Average

Avg 18.7 Mbps : 16.18 Mbps

Maximum

Max 39.58 Mbps : 78.25 Mbps

Minimum

Min: 2.2 Mbps : 0.16 Mbps |

Average

Avg: 18.7 Mbps : 16.18 Mbps |

Maximum

Max: 39.58 Mbps : 78.25 Mbps